createdAt,value
2019-04-20T00:05:13.320Z,11.37
2019-04-20T00:07:52.165Z,10.90
2019-04-20T00:10:24.330Z,10.47
2019-04-20T00:13:09.014Z,10.40
2019-04-20T00:15:26.522Z,10.93
2019-04-20T00:18:01.229Z,11.53
2019-04-20T00:20:32.341Z,10.83
2019-04-20T00:23:24.963Z,11.60
2019-04-20T00:26:17.314Z,10.47
2019-04-20T00:28:55.879Z,11.00
2019-04-20T00:31:27.231Z,10.40
2019-04-20T00:33:56.137Z,10.70
2019-04-20T00:36:17.957Z,11.03
2019-04-20T00:38:53.594Z,11.90
2019-04-20T00:41:24.130Z,11.17
2019-04-20T00:43:57.800Z,11.03
2019-04-20T00:46:36.037Z,12.03
2019-04-20T00:49:15.164Z,11.30
2019-04-20T00:51:52.594Z,12.00
2019-04-20T00:54:03.917Z,11.37
2019-04-20T00:56:35.100Z,11.43
2019-04-20T00:59:17.186Z,11.03
2019-04-20T01:01:54.552Z,11.20
2019-04-20T01:04:25.441Z,12.37
2019-04-20T01:07:26.317Z,11.50
2019-04-20T01:09:54.223Z,11.40
2019-04-20T01:12:30.270Z,11.77
2019-04-20T01:15:05.376Z,12.70
2019-04-20T01:32:15.079Z,11.87
2019-04-20T01:34:50.215Z,11.80
2019-04-20T01:37:24.704Z,11.23
2019-04-20T01:39:46.675Z,11.80
2019-04-20T01:42:36.102Z,11.80
2019-04-20T01:45:14.610Z,11.00
2019-04-20T01:47:45.259Z,11.57
2019-04-20T01:50:22.134Z,11.53
2019-04-20T01:52:58.062Z,11.53
2019-04-20T01:55:48.244Z,11.63
2019-04-20T02:01:09.815Z,11.40
2019-04-20T02:04:01.759Z,12.00
2019-04-20T02:06:41.878Z,11.80
2019-04-20T02:09:11.995Z,11.50
2019-04-20T02:11:41.372Z,11.90
2019-04-20T02:14:11.958Z,12.63
2019-04-20T02:19:43.097Z,11.03
2019-04-20T02:22:13.642Z,12.60
2019-04-20T02:24:32.080Z,11.43
2019-04-20T02:27:04.097Z,11.70
2019-04-20T02:29:59.856Z,11.83
2019-04-20T02:32:36.555Z,11.27
2019-04-20T02:35:16.781Z,11.80
2019-04-20T02:43:15.359Z,11.57
2019-04-20T02:54:11.091Z,11.40
2019-04-20T02:59:27.094Z,10.73
2019-04-20T03:01:47.346Z,11.53
2019-04-20T03:04:02.060Z,11.43
2019-04-20T03:06:53.540Z,11.60
2019-04-20T03:09:31.517Z,10.93
2019-04-20T03:12:04.458Z,11.77
2019-04-20T03:14:29.258Z,11.37
2019-04-20T03:17:09.894Z,11.73
2019-04-20T03:19:32.820Z,11.17
2019-04-20T03:22:16.075Z,11.10
2019-04-20T03:24:54.054Z,11.17
2019-04-20T03:27:16.028Z,12.13
2019-04-20T03:29:56.661Z,12.20
2019-04-20T03:32:57.304Z,11.47
2019-04-20T03:43:01.097Z,11.00
2019-04-20T03:45:44.681Z,11.37
2019-04-20T03:48:21.345Z,11.30
2019-04-20T03:50:56.482Z,10.77
2019-04-20T03:53:34.475Z,10.33
2019-04-20T03:56:35.132Z,10.57
2019-04-20T03:59:21.295Z,10.63
2019-04-20T04:05:04.357Z,11.80
2019-04-20T04:07:30.399Z,10.70
2019-04-20T04:10:06.720Z,10.43
2019-04-20T04:12:58.902Z,11.00
2019-04-20T04:15:29.627Z,10.70
2019-04-20T04:18:07.504Z,10.83
2019-04-20T04:20:40.746Z,10.93
2019-04-20T04:23:22.006Z,10.53
2019-04-20T04:25:58.378Z,11.23
2019-04-20T04:28:26.244Z,11.27
2019-04-20T04:31:04.169Z,11.40
2019-04-20T04:35:56.636Z,10.87
2019-04-20T04:38:39.598Z,11.23
2019-04-20T04:41:13.461Z,11.70
2019-04-20T04:43:40.207Z,11.67
2019-04-20T04:45:53.314Z,10.80
2019-04-20T04:51:25.638Z,11.43
2019-04-20T04:53:58.097Z,10.90
2019-04-20T04:56:24.000Z,11.37
2019-04-20T04:58:54.551Z,11.83
2019-04-20T05:01:30.745Z,11.43
2019-04-20T05:04:23.246Z,11.20
2019-04-20T05:06:45.695Z,11.00
2019-04-20T05:09:23.715Z,10.70
2019-04-20T05:11:59.959Z,11.13
2019-04-20T05:14:32.271Z,11.30
2019-04-20T05:29:04.607Z,11.07
2019-04-20T05:31:33.997Z,11.77
2019-04-20T05:34:20.311Z,10.40
2019-04-20T05:36:53.028Z,11.73
2019-04-20T05:39:32.948Z,11.77
2019-04-20T05:42:21.516Z,11.03
2019-04-20T05:44:49.939Z,10.53
2019-04-20T05:47:38.715Z,11.20
2019-04-20T05:50:05.056Z,11.03
2019-04-20T05:52:50.216Z,11.27
2019-04-20T05:55:31.889Z,11.80
2019-04-20T05:58:02.002Z,11.60
2019-04-20T06:00:41.003Z,11.80
2019-04-20T06:03:15.250Z,11.63
2019-04-20T06:05:57.875Z,11.20
2019-04-20T06:08:42.733Z,11.47
2019-04-20T06:11:04.166Z,11.60
2019-04-20T06:13:49.766Z,12.70
2019-04-20T06:16:40.916Z,11.93
2019-04-20T06:19:18.237Z,11.90
2019-04-20T06:28:01.069Z,12.40
2019-04-20T06:30:33.186Z,12.33
2019-04-20T06:50:31.574Z,11.90
2019-04-20T06:53:58.653Z,13.27
2019-04-20T06:57:00.290Z,12.40
2019-04-20T06:59:33.449Z,12.77
2019-04-20T07:02:14.202Z,12.40
2019-04-20T07:07:15.704Z,14.03
2019-04-20T07:09:58.267Z,12.37
2019-04-20T07:12:12.852Z,13.17
2019-04-20T07:15:06.502Z,13.23
2019-04-20T07:20:46.425Z,14.00
2019-04-20T07:23:20.224Z,12.50
2019-04-20T07:25:44.647Z,12.17
2019-04-20T07:28:19.686Z,13.43
2019-04-20T07:30:46.319Z,13.17
2019-04-20T07:33:24.639Z,13.13
2019-04-20T07:35:50.835Z,13.83
2019-04-20T07:38:34.561Z,13.60
2019-04-20T07:41:08.228Z,16.10
2019-04-20T07:43:43.571Z,15.67
2019-04-20T07:46:10.516Z,16.10
2019-04-20T07:48:36.926Z,15.33
2019-04-20T07:51:01.178Z,15.97
2019-04-20T07:53:39.275Z,15.73
2019-04-20T07:56:17.825Z,14.80
2019-04-20T07:58:38.812Z,14.10
2019-04-20T08:01:32.853Z,13.50
2019-04-20T08:06:42.171Z,12.90
2019-04-20T08:09:24.741Z,12.77
2019-04-20T08:12:07.487Z,12.90
2019-04-20T08:14:41.173Z,12.67
2019-04-20T08:17:14.375Z,12.60
2019-04-20T08:19:36.725Z,12.47
2019-04-20T08:22:09.553Z,12.23
2019-04-20T08:24:32.729Z,12.27
2019-04-20T08:26:59.042Z,11.90
2019-04-20T08:29:44.263Z,12.73
2019-04-20T08:35:38.979Z,11.70
2019-04-20T08:38:37.929Z,11.33
2019-04-20T08:40:44.077Z,11.07
2019-04-20T08:43:34.549Z,11.23
2019-04-20T08:48:39.367Z,11.53
2019-04-20T08:51:03.608Z,11.23
2019-04-20T08:53:46.416Z,11.37
2019-04-20T08:55:55.336Z,11.77
2019-04-20T08:58:14.341Z,10.40
2019-04-20T09:00:50.182Z,11.83
2019-04-20T09:03:22.844Z,11.27
2019-04-20T09:05:56.596Z,11.40
2019-04-20T09:08:23.931Z,11.07
2019-04-20T09:11:05.889Z,11.53
2019-04-20T09:13:26.940Z,11.70
2019-04-20T09:18:47.686Z,11.70
2019-04-20T09:21:22.202Z,11.57
2019-04-20T09:24:09.137Z,11.17
2019-04-20T09:26:37.133Z,11.60
2019-04-20T09:29:12.129Z,11.97
2019-04-20T09:31:43.728Z,12.03
2019-04-20T09:34:42.437Z,12.47
2019-04-20T09:37:43.551Z,12.37
2019-04-20T09:40:34.954Z,12.43
2019-04-20T09:43:00.303Z,12.03
2019-04-20T09:45:40.117Z,12.57
2019-04-20T09:48:15.705Z,12.47
2019-04-20T09:51:00.889Z,12.30
2019-04-20T09:53:24.814Z,11.80
2019-04-20T09:55:57.726Z,12.07
2019-04-20T09:58:25.957Z,12.00
2019-04-20T10:01:03.180Z,12.17
2019-04-20T10:03:18.484Z,12.07
2019-04-20T10:05:48.055Z,12.00
2019-04-20T10:08:17.694Z,12.20
2019-04-20T10:10:48.930Z,12.20
2019-04-20T10:13:19.521Z,12.00
2019-04-20T10:15:50.013Z,13.70
2019-04-20T10:18:19.810Z,12.00
2019-04-20T10:20:49.651Z,12.47
2019-04-20T10:23:38.703Z,10.87
2019-04-20T10:26:08.922Z,11.33
2019-04-20T10:28:39.409Z,11.10
2019-04-20T10:31:09.035Z,10.73
2019-04-20T10:33:39.604Z,10.50
2019-04-20T10:36:17.378Z,10.83
2019-04-20T10:38:46.915Z,10.63
2019-04-20T10:41:29.758Z,10.80
2019-04-20T10:44:07.184Z,11.20
2019-04-20T10:46:36.822Z,11.90
2019-04-20T10:49:07.680Z,11.20
2019-04-20T10:54:24.346Z,10.63
2019-04-20T10:56:55.428Z,11.20
2019-04-20T10:59:25.702Z,11.27
2019-04-20T11:01:55.949Z,10.23
2019-04-20T11:07:12.395Z,10.63
2019-04-20T11:09:44.740Z,11.60
2019-04-20T11:12:14.543Z,10.77
2019-04-20T11:14:45.700Z,11.60
2019-04-20T11:17:33.361Z,11.27
2019-04-20T11:20:03.433Z,11.97
2019-04-20T11:22:34.744Z,11.27
2019-04-20T11:25:04.518Z,11.50
2019-04-20T11:27:34.247Z,11.60
2019-04-20T11:30:05.689Z,11.30
2019-04-20T11:32:38.142Z,11.60
2019-04-20T11:35:18.064Z,11.80
2019-04-20T11:37:39.423Z,11.10
2019-04-20T11:40:11.240Z,10.60
2019-04-20T11:42:42.102Z,10.07
2019-04-20T11:45:15.653Z,9.17
2019-04-20T11:47:47.425Z,9.90
2019-04-20T11:53:26.539Z,10.40
2019-04-20T11:55:54.647Z,10.10
2019-04-20T11:58:24.083Z,10.77
2019-04-20T12:01:02.946Z,9.13
2019-04-20T12:03:35.462Z,8.53
2019-04-20T12:06:01.102Z,9.87
2019-04-20T12:08:29.292Z,6.10
2019-04-20T12:14:00.570Z,8.00
2019-04-20T12:16:39.591Z,8.40
2019-04-20T12:27:27.227Z,10.50
2019-04-20T12:30:01.704Z,9.73
2019-04-20T12:32:44.872Z,10.17
2019-04-20T12:37:59.335Z,8.87
2019-04-20T12:40:38.379Z,8.50
2019-04-20T12:49:07.790Z,9.57
2019-04-20T12:52:10.271Z,8.37
2019-04-20T12:54:45.144Z,8.40
2019-04-20T12:57:20.703Z,7.73
2019-04-20T13:02:49.470Z,9.17
2019-04-20T13:05:58.098Z,9.07
2019-04-20T13:08:36.897Z,8.40
2019-04-20T13:11:30.940Z,9.13
2019-04-20T13:14:44.293Z,10.50
2019-04-20T13:32:34.382Z,8.80
2019-04-20T13:50:31.647Z,9.10
2019-04-20T14:51:49.967Z,8.83
2019-04-20T15:03:49.953Z,8.33
2019-04-20T15:14:20.641Z,8.50
2019-04-20T15:16:52.937Z,8.13
2019-04-20T15:19:57.238Z,8.37
2019-04-20T15:22:43.376Z,7.70
2019-04-20T15:25:18.176Z,8.43
2019-04-20T15:28:30.344Z,8.77
2019-04-20T15:37:37.295Z,8.57
2019-04-20T15:45:43.438Z,8.70
2019-04-20T15:53:44.776Z,9.18
2019-04-20T15:56:14.649Z,8.60
2019-04-20T15:58:44.517Z,8.00
2019-04-20T16:04:35.592Z,8.20
2019-04-20T16:07:03.454Z,8.63
2019-04-20T16:09:33.718Z,8.50
2019-04-20T16:12:04.694Z,8.75
2019-04-20T16:14:35.497Z,8.08
2019-04-20T16:17:31.019Z,7.85
2019-04-20T16:20:03.927Z,7.37
2019-04-20T16:22:28.796Z,7.93
2019-04-20T16:25:17.225Z,8.10
2019-04-20T16:30:53.802Z,7.93
2019-04-20T16:33:24.156Z,8.20
2019-04-20T16:35:54.407Z,8.20
2019-04-20T16:38:30.379Z,7.67
2019-04-20T16:41:00.054Z,7.60
2019-04-20T16:43:35.724Z,7.67
2019-04-20T16:46:01.356Z,7.43
2019-04-20T16:48:34.237Z,7.43
2019-04-20T16:51:04.872Z,7.07
2019-04-20T16:53:35.034Z,6.83
2019-04-20T16:56:04.636Z,7.13
2019-04-20T16:58:34.115Z,7.67
2019-04-20T17:01:03.777Z,7.20
2019-04-20T17:03:44.520Z,6.73
2019-04-20T17:06:06.359Z,6.57
2019-04-20T17:08:37.084Z,6.80
2019-04-20T17:11:07.798Z,6.97
2019-04-20T17:13:45.307Z,7.43
2019-04-20T17:19:23.945Z,7.53
2019-04-20T17:21:57.109Z,7.40
2019-04-20T17:24:25.059Z,7.40
2019-04-20T17:27:08.794Z,7.10
2019-04-20T17:29:50.275Z,7.50
2019-04-20T17:32:23.236Z,7.40
2019-04-20T17:35:04.650Z,7.57
2019-04-20T17:37:24.593Z,7.43
2019-04-20T17:40:10.794Z,7.20
2019-04-20T17:42:53.078Z,7.40
2019-04-20T17:45:28.855Z,7.70
2019-04-20T17:48:01.805Z,8.00
2019-04-20T17:50:35.695Z,6.77
2019-04-20T17:53:07.334Z,8.47
2019-04-20T17:55:38.920Z,7.50
2019-04-20T17:58:01.682Z,7.20
2019-04-20T18:00:47.534Z,7.77
2019-04-20T18:03:54.074Z,7.80
2019-04-20T18:06:08.309Z,7.70
2019-04-20T18:08:35.964Z,7.47
2019-04-20T18:11:01.794Z,7.40
2019-04-20T18:13:45.030Z,7.97
2019-04-20T18:16:45.381Z,7.57
2019-04-20T18:19:32.763Z,7.40
2019-04-20T18:22:05.831Z,7.57
2019-04-20T18:24:55.836Z,8.00
2019-04-20T18:27:35.183Z,7.40
2019-04-20T18:29:58.912Z,7.87
2019-04-20T18:32:37.782Z,7.67
2019-04-20T18:43:48.657Z,8.00
2019-04-20T18:46:34.285Z,7.73
2019-04-20T18:49:04.795Z,8.53
2019-04-20T18:51:17.642Z,7.10
2019-04-20T18:54:04.954Z,7.43
2019-04-20T18:56:33.053Z,7.87
2019-04-20T19:02:35.630Z,7.47
2019-04-20T19:10:31.349Z,7.00
2019-04-20T19:13:08.095Z,7.50
2019-04-20T19:16:06.857Z,8.07
2019-04-20T19:18:59.470Z,7.40
2019-04-20T19:21:17.228Z,7.63
2019-04-20T19:23:56.275Z,7.57
2019-04-20T19:26:21.391Z,7.83
2019-04-20T19:28:54.011Z,7.43
2019-04-20T19:31:41.343Z,8.00
2019-04-20T19:34:13.123Z,7.80
2019-04-20T19:36:34.253Z,8.67
2019-04-20T19:39:17.253Z,9.33
2019-04-20T19:41:38.965Z,8.17
2019-04-20T19:44:15.885Z,7.60
2019-04-20T19:47:01.644Z,8.30
2019-04-20T19:49:25.045Z,7.80
2019-04-20T19:52:51.454Z,8.67
2019-04-20T20:39:27.734Z,10.87
2019-04-20T20:51:49.798Z,11.50
2019-04-20T20:54:09.211Z,10.07
2019-04-20T20:56:35.846Z,10.27
2019-04-20T20:59:26.923Z,9.97
2019-04-20T21:02:00.959Z,9.80
2019-04-20T21:04:41.704Z,9.53
2019-04-20T21:07:22.592Z,10.33
2019-04-20T21:09:58.701Z,9.93
2019-04-20T21:12:42.882Z,8.90
2019-04-20T21:15:18.326Z,8.93
2019-04-20T21:18:14.129Z,9.17
2019-04-20T21:20:38.243Z,9.33
2019-04-20T21:23:10.988Z,8.63
2019-04-20T21:25:33.613Z,9.30
2019-04-20T21:27:57.049Z,9.27
2019-04-20T21:30:41.589Z,8.43
2019-04-20T21:33:06.038Z,8.67
2019-04-20T21:35:46.628Z,8.67
2019-04-20T21:38:18.251Z,9.13
2019-04-20T21:40:49.675Z,8.83
2019-04-20T21:43:20.615Z,8.90
2019-04-20T21:45:59.469Z,9.10
2019-04-20T21:48:48.929Z,9.00
2019-04-20T21:51:16.527Z,8.70
2019-04-20T21:53:35.394Z,8.77
2019-04-20T21:56:08.096Z,9.10
2019-04-20T21:58:51.368Z,8.60
2019-04-20T22:01:35.737Z,8.70
2019-04-20T22:04:03.382Z,9.03
2019-04-20T22:06:36.274Z,9.10
2019-04-20T22:09:10.873Z,8.80
2019-04-20T22:11:43.916Z,9.10
2019-04-20T22:14:18.612Z,8.80
2019-04-20T22:16:49.587Z,9.10
2019-04-20T22:19:36.676Z,8.30
2019-04-20T22:22:05.576Z,8.90
2019-04-20T22:24:44.969Z,9.07
2019-04-20T22:27:09.794Z,9.00
2019-04-20T22:29:38.533Z,9.37
2019-04-20T22:32:13.092Z,8.70
2019-04-20T22:34:40.309Z,9.00
2019-04-20T22:37:15.361Z,8.70
2019-04-20T22:39:55.914Z,8.50
2019-04-20T22:42:26.025Z,8.80
2019-04-20T22:51:19.649Z,9.23
2019-04-20T22:53:54.348Z,8.83
2019-04-20T22:56:35.357Z,8.77
2019-04-20T22:59:01.108Z,9.50
2019-04-20T23:01:29.899Z,9.57
2019-04-20T23:03:59.040Z,9.20
2019-04-20T23:06:37.383Z,9.47
2019-04-20T23:09:10.229Z,8.87
2019-04-20T23:11:43.137Z,9.27
2019-04-20T23:14:14.319Z,9.73
2019-04-20T23:17:08.339Z,10.00
2019-04-20T23:19:52.659Z,9.90
2019-04-20T23:22:33.810Z,9.87
2019-04-20T23:24:59.483Z,9.97
2019-04-20T23:27:51.255Z,9.67
2019-04-20T23:30:25.201Z,9.97
2019-04-20T23:33:12.218Z,9.83
2019-04-20T23:35:56.272Z,9.37
2019-04-20T23:38:59.824Z,9.53
2019-04-20T23:42:01.483Z,9.50
2019-04-20T23:44:53.030Z,9.77
2019-04-20T23:47:46.569Z,10.37
2019-04-20T23:50:37.314Z,10.20
2019-04-20T23:53:18.176Z,10.53
2019-04-20T23:55:34.213Z,9.90
2019-04-20T23:58:07.425Z,11.00
